Time;durP1;ratioP1;P1;durP2;ratioP2;P2;SDS_P1;SDS_P2;PMS_P1;PMS_P2;Temp;Humidity;BMP_temperature;BMP_pressure;BME280_temperature;BME280_humidity;BME280_pressure;Samples;Min_cycle;Max_cycle;Signal;HPM_P1;HPM_P2
2022/09/25 00:01:16;;;;;;;12.90;3.85;;;;;;;10.41;100.00;101560.31;6097180;23;20060;-76
2022/09/25 00:03:42;;;;;;;11.10;3.03;;;;;;;10.33;100.00;101555.56;6096833;23;20022;-79
2022/09/25 00:06:13;;;;;;;11.50;3.15;;;;;;;10.41;100.00;101560.31;6097104;23;20011;-82
2022/09/25 00:08:39;;;;;;;10.32;3.72;;;;;;;10.41;100.00;101565.50;6097160;23;20016;-81
2022/09/25 00:11:13;;;;;;;13.15;3.42;;;;;;;10.40;100.00;101579.31;6097378;23;20089;-79
2022/09/25 00:13:39;;;;;;;10.68;3.58;;;;;;;10.21;100.00;101553.56;6097185;23;20018;-76
2022/09/25 00:16:08;;;;;;;12.52;3.45;;;;;;;10.32;100.00;101571.13;6097326;23;20056;-76
2022/09/25 00:21:17;;;;;;;9.40;2.90;;;;;;;10.25;100.00;101564.63;6097055;23;20016;-83
2022/09/25 00:23:44;;;;;;;11.20;3.75;;;;;;;10.21;100.00;101556.13;6096994;23;20332;-80
2022/09/25 00:26:11;;;;;;;8.85;2.80;;;;;;;10.33;100.00;101580.56;6096817;23;20010;-77
2022/09/25 00:28:38;;;;;;;12.52;3.00;;;;;;;10.31;100.00;101578.03;6097015;23;20421;-78
2022/09/25 00:31:04;;;;;;;10.05;3.65;;;;;;;10.32;100.00;101573.69;6096984;23;20006;-82
2022/09/25 00:33:31;;;;;;;13.27;3.78;;;;;;;10.18;100.00;101558.88;6096711;23;20425;-76
2022/09/25 00:36:05;;;;;;;10.95;3.72;;;;;;;10.28;100.00;101572.19;6096943;23;20030;-81
2022/09/25 00:38:32;;;;;;;7.90;3.15;;;;;;;10.26;100.00;101563.69;6096978;23;20003;-82
2022/09/25 00:40:57;;;;;;;11.10;3.28;;;;;;;10.26;100.00;101571.44;6096787;23;20055;-76
2022/09/25 00:43:50;;;;;;;11.90;3.10;;;;;;;10.19;100.00;101570.03;6097046;23;20017;-83
2022/09/25 00:46:19;;;;;;;10.88;3.33;;;;;;;10.22;100.00;101572.47;6096984;23;20034;-82
2022/09/25 00:48:50;;;;;;;13.18;4.50;;;;;;;10.21;100.00;101575.94;6096642;23;20065;-82
2022/09/25 00:51:23;;;;;;;7.78;3.67;;;;;;;10.00;100.00;101552.03;6096806;23;20015;-81
2022/09/25 00:53:49;;;;;;;10.38;3.58;;;;;;;10.04;100.00;101557.00;6096746;23;20023;-81
2022/09/25 00:56:14;;;;;;;11.48;3.80;;;;;;;10.15;100.00;101582.25;6096956;23;20098;-81
2022/09/25 00:58:41;;;;;;;10.82;3.90;;;;;;;10.02;100.00;101558.78;6096917;23;20437;-81
2022/09/25 01:01:07;;;;;;;10.68;3.80;;;;;;;10.09;100.00;101566.22;6096877;23;20061;-82
2022/09/25 01:03:34;;;;;;;10.60;3.60;;;;;;;10.13;100.00;101578.94;6096650;23;20090;-81
2022/09/25 01:06:01;;;;;;;14.45;3.80;;;;;;;10.11;100.00;101585.06;6096712;23;20030;-81
2022/09/25 01:08:29;;;;;;;15.93;4.68;;;;;;;10.08;100.00;101583.47;6096754;23;20421;-79
2022/09/25 01:10:55;;;;;;;11.18;3.67;;;;;;;10.05;100.00;101578.47;6097007;23;20399;-82
2022/09/25 01:13:21;;;;;;;13.52;4.05;;;;;;;9.95;100.00;101569.50;6096670;23;20444;-80
2022/09/25 01:16:15;;;;;;;11.27;3.85;;;;;;;10.01;100.00;101587.25;6097043;23;20006;-80
2022/09/25 01:18:56;;;;;;;10.15;3.83;;;;;;;9.98;100.00;101587.41;5979849;24;20012;-78
2022/09/25 01:21:24;;;;;;;10.52;4.20;;;;;;;9.92;100.00;101585.94;5980381;24;20350;-82
2022/09/25 01:24:17;;;;;;;16.20;4.38;;;;;;;9.91;100.00;101583.44;5980397;24;20087;-78
2022/09/25 01:26:50;;;;;;;10.85;4.13;;;;;;;9.88;100.00;101583.59;5980267;24;20020;-82
2022/09/25 01:29:29;;;;;;;13.68;3.88;;;;;;;9.65;100.00;101556.34;5980857;24;20008;-81
2022/09/25 01:32:02;;;;;;;9.85;4.03;;;;;;;9.81;100.00;101577.06;5982374;24;20016;-84
2022/09/25 01:34:58;;;;;;;17.70;3.97;;;;;;;9.74;100.00;101587.69;5981864;24;20343;-83
2022/09/25 01:37:28;;;;;;;12.98;3.97;;;;;;;9.71;100.00;101592.13;5981968;24;20375;-81
2022/09/25 01:40:20;;;;;;;12.85;3.97;;;;;;;9.66;100.00;101592.34;5981985;24;20125;-82
2022/09/25 01:42:51;;;;;;;11.23;4.10;;;;;;;9.36;100.00;101558.53;5958653;24;20008;-77
2022/09/25 01:45:31;;;;;;;12.95;4.03;;;;;;;9.53;100.00;101590.41;5982219;24;20018;-76
2022/09/25 01:48:00;;;;;;;8.52;3.38;;;;;;;9.51;100.00;101594.81;5981670;24;20403;-78
2022/09/25 01:50:32;;;;;;;10.70;4.30;;;;;;;9.45;100.00;101594.19;5981630;24;20020;-76
2022/09/25 01:53:03;;;;;;;11.45;3.85;;;;;;;9.36;100.00;101592.03;5981906;24;20086;-79
2022/09/25 01:55:39;;;;;;;13.10;4.70;;;;;;;9.34;100.00;101598.13;6020662;23;20043;-76
2022/09/25 01:58:13;;;;;;;12.32;4.40;;;;;;;9.29;100.00;101602.69;6070001;23;20013;-83
2022/09/25 02:00:43;;;;;;;13.20;4.30;;;;;;;9.20;100.00;101591.03;6069295;23;20007;-83
2022/09/25 02:03:20;;;;;;;10.10;4.15;;;;;;;9.01;100.00;101564.44;6069804;23;20094;-79
2022/09/25 02:05:52;;;;;;;10.10;3.67;;;;;;;9.13;100.00;101590.47;6069483;23;20077;-82
2022/09/25 02:08:24;;;;;;;10.98;4.15;;;;;;;9.06;100.00;101594.25;6069855;23;20002;-77
2022/09/25 02:11:01;;;;;;;10.95;3.90;;;;;;;8.82;100.00;101566.97;6069800;23;20011;-83
2022/09/25 02:13:36;;;;;;;13.00;4.70;;;;;;;8.83;100.00;101572.06;6069290;23;20013;-81
2022/09/25 02:16:10;;;;;;;12.85;4.97;;;;;;;8.79;100.00;101569.69;6069525;23;20058;-83
2022/09/25 02:21:31;;;;;;;11.50;4.57;;;;;;;8.76;100.00;101569.84;6069048;23;20017;-82
2022/09/25 02:24:08;;;;;;;9.77;4.20;;;;;;;8.69;100.00;101576.16;6069086;23;20013;-82
2022/09/25 02:26:34;;;;;;;11.68;4.40;;;;;;;8.72;100.00;101592.28;6069605;23;20303;-82
2022/09/25 02:29:01;;;;;;;11.50;4.78;;;;;;;8.68;100.00;101590.75;6069333;23;20011;-83
2022/09/25 02:31:35;;;;;;;10.45;4.43;;;;;;;8.66;100.00;101599.47;6069529;23;20007;-76
2022/09/25 02:34:02;;;;;;;13.68;4.90;;;;;;;8.61;100.00;101599.66;6068985;23;20010;-78
2022/09/25 02:36:28;;;;;;;10.10;4.60;;;;;;;8.59;100.00;101598.88;6068954;23;20007;-78
2022/09/25 02:38:55;;;;;;;10.10;4.22;;;;;;;8.56;100.00;101597.28;6069230;23;20070;-76
2022/09/25 02:41:45;;;;;;;9.80;4.70;;;;;;;8.52;100.00;101595.72;6068705;23;20003;-82
2022/09/25 02:44:37;;;;;;;11.57;4.80;;;;;;;8.51;100.00;101600.94;6069625;23;20006;-77
2022/09/25 02:47:11;;;;;;;12.18;4.60;;;;;;;8.47;100.00;101597.66;5981440;24;20095;-81
2022/09/25 02:50:15;;;;;;;11.13;4.97;;;;;;;8.37;100.00;101580.94;6005122;23;20027;-80
2022/09/25 02:52:51;;;;;;;12.98;5.05;;;;;;;8.42;100.00;101591.03;5953583;24;20012;-76
2022/09/25 02:55:33;;;;;;;10.55;4.53;;;;;;;8.24;100.00;101572.00;5953454;24;20100;-81
2022/09/25 02:58:05;;;;;;;7.90;4.20;;;;;;;8.20;100.00;101579.00;5953510;24;20033;-80
2022/09/25 03:00:34;;;;;;;9.60;4.57;;;;;;;8.10;100.00;101575.16;5953573;24;20024;-79
2022/09/25 03:03:02;;;;;;;31.02;18.73;;;;;;;8.02;100.00;101572.88;5953570;23;20013;-80
2022/09/25 03:05:29;;;;;;;52.92;31.30;;;;;;;7.97;100.00;101579.13;5953273;24;20466;-81
2022/09/25 03:10:40;;;;;;;79.97;48.00;;;;;;;7.73;100.00;101566.31;5953518;24;20088;-77
2022/09/25 03:13:20;;;;;;;74.28;45.65;;;;;;;7.63;100.00;101553.88;5953528;24;20015;-80
2022/09/25 03:16:17;;;;;;;50.92;31.63;;;;;;;7.74;100.00;101590.28;5953324;24;20139;-81
2022/09/25 03:18:43;;;;;;;15.35;8.75;;;;;;;7.72;100.00;101585.22;5953475;24;20016;-78
2022/09/25 03:21:09;;;;;;;14.90;5.97;;;;;;;7.55;100.00;101540.50;5953332;24;20012;-78
2022/09/25 03:23:34;;;;;;;15.40;5.82;;;;;;;7.91;100.00;101585.34;5979451;23;20015;-80
2022/09/25 03:25:59;;;;;;;13.40;6.05;;;;;;;7.84;100.00;101567.63;6037753;23;20362;-80
2022/09/25 03:28:25;;;;;;;11.57;6.00;;;;;;;7.93;100.00;101583.53;6042025;23;20018;-82
2022/09/25 03:31:03;;;;;;;9.98;5.30;;;;;;;7.90;100.00;101575.13;6097568;23;20002;-81
2022/09/25 03:33:32;;;;;;;15.13;6.40;;;;;;;7.98;100.00;101584.19;6096758;23;20017;-77
2022/09/25 03:36:15;;;;;;;15.35;6.65;;;;;;;7.93;100.00;101577.56;6097368;23;20329;-79
2022/09/25 03:38:42;;;;;;;14.07;6.57;;;;;;;7.92;100.00;101570.75;6097432;23;20013;-78
2022/09/25 03:41:09;;;;;;;15.63;7.40;;;;;;;7.99;100.00;101577.31;6097777;23;20329;-76
2022/09/25 03:43:39;;;;;;;12.82;6.65;;;;;;;7.93;100.00;101580.13;6097517;23;20006;-76
2022/09/25 03:46:08;;;;;;;16.88;6.43;;;;;;;7.86;100.00;101569.22;6097232;23;20010;-76
2022/09/25 03:48:34;;;;;;;11.55;6.38;;;;;;;7.87;100.00;101585.53;6096063;23;20085;-83
2022/09/25 03:51:00;;;;;;;11.57;6.22;;;;;;;7.67;100.00;101552.84;6097210;23;20138;-80
2022/09/25 03:53:26;;;;;;;15.95;6.88;;;;;;;7.83;100.00;101576.25;6097058;23;20374;-81
2022/09/25 03:55:52;;;;;;;15.25;6.30;;;;;;;7.86;100.00;101576.94;6097622;23;20122;-79
2022/09/25 03:58:18;;;;;;;12.13;7.03;;;;;;;7.85;100.00;101577.84;6097367;23;20006;-82
2022/09/25 04:00:45;;;;;;;15.73;7.07;;;;;;;7.84;100.00;101580.50;6097305;23;20011;-82
2022/09/25 04:03:11;;;;;;;13.48;7.38;;;;;;;7.81;100.00;101585.75;6097667;23;20007;-76
2022/09/25 04:05:37;;;;;;;17.00;7.00;;;;;;;7.78;100.00;101589.28;6096981;23;20002;-76
2022/09/25 04:08:03;;;;;;;14.80;6.97;;;;;;;7.64;100.00;101570.97;6097074;23;20009;-82
2022/09/25 04:10:29;;;;;;;16.25;7.72;;;;;;;7.76;100.00;101593.63;6097174;23;20010;-82
2022/09/25 04:12:54;;;;;;;19.55;7.80;;;;;;;7.78;100.00;101588.47;6096994;23;20362;-77
2022/09/25 04:15:22;;;;;;;19.02;7.40;;;;;;;7.68;100.00;101575.13;6097069;23;20010;-77
2022/09/25 04:17:48;;;;;;;15.82;6.75;;;;;;;7.54;100.00;101542.22;6097162;23;20010;-76
2022/09/25 04:20:13;;;;;;;17.83;7.65;;;;;;;7.70;100.00;101570.75;6097065;23;20377;-77
2022/09/25 04:22:38;;;;;;;20.48;8.23;;;;;;;7.70;100.00;101573.31;6097050;23;20038;-76
2022/09/25 04:25:04;;;;;;;15.25;7.20;;;;;;;7.69;100.00;101572.50;6097418;23;20440;-81
2022/09/25 04:27:30;;;;;;;12.05;7.07;;;;;;;7.57;100.00;101572.09;6096847;23;20073;-82
2022/09/25 04:29:56;;;;;;;19.25;7.75;;;;;;;7.63;100.00;101574.44;6096925;23;20006;-82
2022/09/25 04:35:05;;;;;;;12.65;7.93;;;;;;;7.61;100.00;101578.81;6097157;23;20025;-77
2022/09/25 04:37:30;;;;;;;15.10;7.60;;;;;;;7.43;100.00;101552.09;6096995;23;20030;-77
2022/09/25 04:39:57;;;;;;;14.20;7.68;;;;;;;7.57;100.00;101580.69;6096941;23;19995;-79
2022/09/25 04:42:23;;;;;;;13.98;7.72;;;;;;;7.51;100.00;101574.94;6096798;23;20002;-83
2022/09/25 04:44:53;;;;;;;14.50;7.72;;;;;;;7.36;100.00;101550.63;6097335;23;20053;-78
2022/09/25 04:47:20;;;;;;;17.88;8.43;;;;;;;7.44;100.00;101570.00;6097014;23;20337;-81
2022/09/25 04:49:46;;;;;;;15.73;8.50;;;;;;;7.45;100.00;101576.00;6096831;23;20011;-82
2022/09/25 04:52:13;;;;;;;16.83;9.00;;;;;;;7.43;100.00;101575.22;6097114;23;20026;-80
2022/09/25 04:54:39;;;;;;;15.95;8.10;;;;;;;7.38;100.00;101583.13;6096661;23;20374;-82
2022/09/25 04:57:04;;;;;;;18.70;8.18;;;;;;;7.41;100.00;101575.28;6097090;23;20066;-82
2022/09/25 04:59:30;;;;;;;16.00;8.02;;;;;;;7.37;100.00;101570.28;6096949;23;20003;-79
2022/09/25 05:01:55;;;;;;;17.83;8.35;;;;;;;7.26;100.00;101554.44;6096946;23;20049;-79
2022/09/25 05:04:21;;;;;;;17.33;9.27;;;;;;;7.33;100.00;101572.16;6098794;23;20037;-82
2022/09/25 05:06:46;;;;;;;17.02;8.95;;;;;;;7.33;100.00;101563.63;6100282;23;20006;-80
2022/09/25 05:09:11;;;;;;;18.00;8.93;;;;;;;7.27;100.00;101566.41;6099623;23;20003;-80
2022/09/25 05:11:36;;;;;;;15.25;8.27;;;;;;;7.11;100.00;101536.16;6100062;23;20332;-78
2022/09/25 05:14:02;;;;;;;15.52;7.72;;;;;;;7.11;100.00;101553.31;6099842;23;20010;-82
2022/09/25 05:16:29;;;;;;;12.95;7.00;;;;;;;7.09;100.00;101563.63;6100297;23;20033;-77
2022/09/25 05:18:55;;;;;;;16.55;8.80;;;;;;;7.17;100.00;101560.75;6099996;23;20007;-82
2022/09/25 05:21:20;;;;;;;17.30;8.80;;;;;;;7.19;100.00;101556.44;6099938;23;20006;-81
2022/09/25 05:23:46;;;;;;;16.40;9.00;;;;;;;7.21;100.00;101562.34;6099674;23;20337;-81
2022/09/25 05:26:11;;;;;;;18.40;9.15;;;;;;;7.09;100.00;101545.66;6099959;23;20499;-81
2022/09/25 05:28:37;;;;;;;16.55;9.32;;;;;;;7.22;100.00;101568.31;6099986;23;20010;-82
2022/09/25 05:31:04;;;;;;;14.10;8.98;;;;;;;7.19;100.00;101559.00;6100095;23;20007;-83
2022/09/25 05:33:34;;;;;;;18.30;9.85;;;;;;;7.22;100.00;101561.44;6074330;23;20006;-83
2022/09/25 05:36:04;;;;;;;17.23;9.52;;;;;;;7.19;100.00;101547.00;6099964;23;20006;-84
2022/09/25 05:38:31;;;;;;;21.30;9.95;;;;;;;7.19;100.00;101549.56;6099704;23;20002;-81
2022/09/25 05:41:02;;;;;;;18.80;10.07;;;;;;;7.13;100.00;101536.94;6100372;23;20006;-77
2022/09/25 05:43:27;;;;;;;19.45;9.85;;;;;;;7.20;100.00;101550.41;6099991;23;20382;-78
2022/09/25 05:45:56;;;;;;;21.73;10.82;;;;;;;7.34;100.00;101560.16;6099985;23;20034;-77
2022/09/25 05:48:22;;;;;;;22.00;10.80;;;;;;;7.32;100.00;101556.81;6099716;23;20014;-84
2022/09/25 05:50:52;;;;;;;19.60;10.60;;;;;;;7.35;100.00;101560.06;6100050;23;20102;-81
2022/09/25 05:53:17;;;;;;;20.08;9.70;;;;;;;7.32;100.00;101565.34;6099614;23;20030;-82
2022/09/25 05:55:52;;;;;;;18.98;9.35;;;;;;;7.36;100.00;101566.06;6100071;23;20065;-80
2022/09/25 05:58:17;;;;;;;17.98;9.73;;;;;;;7.18;100.00;101542.75;6100247;23;20013;-80
2022/09/25 06:00:43;;;;;;;16.13;8.13;;;;;;;7.40;100.00;101570.19;6099912;23;20010;-77
2022/09/25 06:03:09;;;;;;;17.45;9.27;;;;;;;7.44;100.00;101570.00;6073757;23;20081;-77
2022/09/25 06:05:35;;;;;;;15.82;8.52;;;;;;;7.60;100.00;101574.59;6074127;23;20010;-76
2022/09/25 06:08:01;;;;;;;15.68;8.48;;;;;;;7.60;100.00;101577.16;6100045;23;20013;-77
2022/09/25 06:10:27;;;;;;;18.20;8.88;;;;;;;7.62;100.00;101567.63;6100115;23;20420;-84
2022/09/25 06:12:57;;;;;;;16.15;7.72;;;;;;;7.54;100.00;101547.38;6099710;23;20003;-76
2022/09/25 06:15:24;;;;;;;12.88;7.53;;;;;;;7.62;100.00;101553.06;6099167;23;20448;-77
2022/09/25 06:17:50;;;;;;;14.32;7.82;;;;;;;7.83;100.00;101576.25;6098146;23;20085;-77
2022/09/25 06:20:15;;;;;;;19.25;9.73;;;;;;;7.91;100.00;101579.34;6098390;23;20041;-81
2022/09/25 06:22:42;;;;;;;17.67;10.13;;;;;;;8.00;100.00;101577.25;6098162;23;20007;-82
2022/09/25 06:25:09;;;;;;;20.63;10.77;;;;;;;7.99;100.00;101567.03;6097991;23;20014;-78
2022/09/25 06:27:35;;;;;;;21.70;11.18;;;;;;;8.13;100.00;101585.31;6098106;23;20006;-82
2022/09/25 06:30:01;;;;;;;21.33;10.48;;;;;;;8.17;100.00;101579.16;6098072;23;20077;-76
2022/09/25 06:32:26;;;;;;;16.38;10.05;;;;;;;8.23;100.00;101576.31;6098011;23;20036;-80
2022/09/25 06:34:51;;;;;;;20.42;9.75;;;;;;;8.29;100.00;101578.63;6072078;23;20041;-81
2022/09/25 06:37:17;;;;;;;18.83;9.95;;;;;;;8.38;100.00;101586.91;6098079;23;20436;-80
2022/09/25 06:39:42;;;;;;;17.42;9.20;;;;;;;8.30;100.00;101557.16;6097927;23;20030;-84
2022/09/25 06:42:07;;;;;;;16.95;9.45;;;;;;;8.51;100.00;101573.44;6098286;23;20010;-83
2022/09/25 06:44:33;;;;;;;15.80;9.13;;;;;;;8.63;100.00;101577.25;6098103;23;20020;-81
2022/09/25 06:47:00;;;;;;;15.52;9.43;;;;;;;8.70;100.00;101578.66;6098013;23;20061;-82
2022/09/25 06:49:26;;;;;;;13.48;8.77;;;;;;;8.67;100.00;101559.94;6096357;23;20014;-80
2022/09/25 06:51:51;;;;;;;20.50;9.38;;;;;;;8.78;100.00;101579.16;6097864;23;20003;-81
2022/09/25 06:54:17;;;;;;;16.60;10.00;;;;;;;8.84;100.00;101576.31;6097356;23;20033;-76
2022/09/25 06:56:42;;;;;;;15.93;9.40;;;;;;;8.68;100.00;101541.00;6098017;23;20026;-78
2022/09/25 06:59:08;;;;;;;14.15;9.00;;;;;;;9.03;100.00;101588.38;6097249;23;20132;-74
2022/09/25 07:01:34;;;;;;;14.20;8.27;;;;;;;9.08;100.00;101586.44;6097671;23;20061;-76
2022/09/25 07:04:00;;;;;;;13.23;8.38;;;;;;;8.92;100.00;101547.63;6097510;23;20054;-77
2022/09/25 07:06:27;;;;;;;12.07;8.23;;;;;;;9.07;100.00;101566.75;6097490;23;20028;-81
2022/09/25 07:08:55;;;;;;;13.90;8.07;;;;;;;9.25;100.00;101589.13;6097464;23;20010;-81
2022/09/25 07:11:23;;;;;;;13.40;8.25;;;;;;;9.20;100.00;101570.44;6097663;23;20029;-80
2022/09/25 07:13:51;;;;;;;12.25;7.68;;;;;;;9.21;100.00;101561.78;6097503;23;20015;-78
2022/09/25 07:16:18;;;;;;;14.68;7.75;;;;;;;9.36;100.00;101586.88;6097303;23;20097;-80
2022/09/25 07:18:45;;;;;;;12.93;7.05;;;;;;;9.55;100.00;101594.59;6097892;23;20085;-81
2022/09/25 07:21:13;;;;;;;14.70;7.35;;;;;;;9.60;100.00;101592.63;6072053;23;20061;-79
2022/09/25 07:23:40;;;;;;;11.88;6.88;;;;;;;9.49;100.00;101561.38;6097735;23;20062;-79
2022/09/25 07:26:08;;;;;;;11.82;6.60;;;;;;;9.76;100.00;101596.19;6095743;23;20035;-79
2022/09/25 07:28:35;;;;;;;12.50;7.28;;;;;;;9.85;100.00;101599.22;6097770;23;20015;-79
2022/09/25 07:31:18;;;;;;;14.05;6.93;;;;;;;9.91;100.00;101604.91;6097771;23;20002;-80
2022/09/25 07:33:45;;;;;;;11.23;6.20;;;;;;;9.98;100.00;101603.72;6097376;23;20329;-79
2022/09/25 07:36:11;;;;;;;11.98;6.88;;;;;;;10.03;100.00;101593.19;6097247;23;20380;-77
2022/09/25 07:38:37;;;;;;;10.55;6.90;;;;;;;9.96;100.00;101574.59;6097341;23;20029;-80
2022/09/25 07:41:05;;;;;;;10.40;6.05;;;;;;;10.07;100.00;101582.63;6096819;23;20049;-81
2022/09/25 07:43:31;;;;;;;10.23;6.28;;;;;;;10.25;100.00;101601.59;6097001;23;20007;-80
2022/09/25 07:45:57;;;;;;;11.05;5.93;;;;;;;10.32;100.00;101599.50;6097176;23;20006;-82
2022/09/25 07:48:23;;;;;;;10.48;5.85;;;;;;;10.29;100.00;101582.44;6096593;23;20023;-80
2022/09/25 07:50:49;;;;;;;11.70;5.80;;;;;;;9.60;100.00;101455.97;6097538;23;20087;-81
2022/09/25 07:53:19;;;;;;;9.70;5.78;;;;;;;10.46;100.00;101578.19;6097764;23;20451;-81
2022/09/25 07:55:45;;;;;;;10.35;5.53;;;;;;;10.69;100.00;101597.66;6096905;23;20477;-79
2022/09/25 07:58:11;;;;;;;8.95;5.15;;;;;;;10.49;100.00;101552.19;6096885;23;20425;-79
2022/09/25 08:00:36;;;;;;;11.18;5.03;;;;;;;10.52;100.00;101547.72;6097112;23;20010;-79
2022/09/25 08:03:02;;;;;;;10.30;4.85;;;;;;;10.56;100.00;101548.41;6097564;23;20010;-79
2022/09/25 08:05:27;;;;;;;8.75;5.50;;;;;;;10.98;100.00;101597.00;6097428;23;20014;-79
2022/09/25 08:07:53;;;;;;;9.15;5.03;;;;;;;10.92;100.00;101576.66;6097096;23;20341;-81
2022/09/25 08:10:19;;;;;;;10.52;4.65;;;;;;;11.06;100.00;101575.94;6097021;23;20045;-80
2022/09/25 08:12:45;;;;;;;9.43;4.60;;;;;;;11.19;100.00;101585.53;6097209;23;20007;-80
2022/09/25 08:15:12;;;;;;;8.23;4.32;;;;;;;11.16;100.00;101580.53;6097252;23;20474;-79
2022/09/25 08:17:37;;;;;;;9.65;4.13;;;;;;;11.33;100.00;101595.16;6097052;23;20069;-78
2022/09/25 08:20:03;;;;;;;9.60;4.43;;;;;;;11.32;100.00;101580.56;6070887;23;20011;-77
2022/09/25 08:22:29;;;;;;;10.30;4.05;;;;;;;11.19;100.00;101549.34;6096960;23;20006;-78
2022/09/25 08:24:54;;;;;;;12.90;4.57;;;;;;;11.57;100.00;101592.97;6096785;23;20041;-79
2022/09/25 08:27:20;;;;;;;8.23;4.07;;;;;;;11.57;100.00;101579.19;6070373;23;20440;-79
2022/09/25 08:29:45;;;;;;;8.30;3.70;;;;;;;11.65;100.00;101590.78;6097142;23;20006;-79
2022/09/25 08:32:11;;;;;;;9.98;3.90;;;;;;;11.58;100.00;101567.94;6097082;23;20007;-79
2022/09/25 08:34:36;;;;;;;7.90;3.47;;;;;;;11.54;100.00;101540.56;6096803;23;20074;-78
2022/09/25 08:37:07;;;;;;;9.07;3.53;;;;;;;11.69;100.00;101550.88;6071270;23;20014;-78
2022/09/25 08:39:33;;;;;;;7.88;3.67;;;;;;;11.43;100.00;101498.03;6096312;23;20006;-77
2022/09/25 08:41:59;;;;;;;7.45;3.28;;;;;;;11.83;100.00;101565.69;6096709;23;20332;-77
2022/09/25 08:49:00;;;;;;;7.53;3.47;;;;;;;12.05;99.96;101594.59;6097329;23;20002;-78
2022/09/25 08:50:22;;;;;;;10.98;2.88;;;;;;;12.10;98.55;101578.81;6096913;23;20044;-78
2022/09/25 08:52:52;;;;;;;7.65;2.65;;;;;;;12.19;98.82;101596.41;6096895;23;20437;-78
2022/09/25 08:58:41;;;;;;;8.25;2.85;;;;;;;12.31;98.06;101600.06;6097070;23;20021;-77
2022/09/25 09:01:15;;;;;;;6.95;3.13;;;;;;;12.03;97.71;101543.84;6096942;23;20002;-79
2022/09/25 09:03:56;;;;;;;6.65;2.35;;;;;;;12.42;96.92;101599.44;6096877;23;20476;-77
2022/09/25 09:06:24;;;;;;;7.15;2.50;;;;;;;11.75;97.85;101475.50;6096917;23;20006;-79
2022/09/25 09:09:10;;;;;;;6.28;2.65;;;;;;;12.57;97.11;101591.56;6097258;23;20320;-77
2022/09/25 09:11:43;;;;;;;6.93;2.03;;;;;;;12.60;94.58;101588.81;6096629;23;20333;-77
2022/09/25 09:14:16;;;;;;;8.32;2.30;;;;;;;12.47;91.74;101561.94;6096642;23;20014;-77
2022/09/25 09:16:54;;;;;;;8.18;1.60;;;;;;;12.71;91.81;101588.19;6096834;23;20010;-76
2022/09/25 09:19:19;;;;;;;6.70;1.75;;;;;;;12.73;90.30;101582.91;6097221;23;20325;-78
2022/09/25 09:22:05;;;;;;;5.60;1.88;;;;;;;12.85;93.55;101579.56;6096564;23;20002;-76
2022/09/25 09:24:40;;;;;;;5.20;1.33;;;;;;;12.91;89.23;101581.78;6097182;23;20006;-78
2022/09/25 09:27:42;;;;;;;7.63;1.30;;;;;;;12.99;90.02;101584.75;6096530;23;20085;-81
2022/09/25 09:30:07;;;;;;;;;;;;;;;13.04;89.73;101579.28;6097405;23;20333;-80
2022/09/25 09:32:59;;;;;;;5.32;1.60;;;;;;;13.09;86.77;101569.47;6097096;23;19984;-81
2022/09/25 09:36:11;;;;;;;5.80;1.40;;;;;;;12.30;88.54;101435.22;6096850;23;20020;-81
2022/09/25 09:39:08;;;;;;;8.30;1.38;;;;;;;13.29;85.39;101570.88;6096957;23;20310;-80
2022/09/25 09:45:28;;;;;;;3.90;1.30;;;;;;;12.35;86.57;101395.16;6136189;23;20490;-79
2022/09/25 09:48:15;;;;;;;10.13;2.20;;;;;;;13.55;87.04;101571.78;6153720;23;20064;-83
2022/09/25 09:50:44;;;;;;;8.88;1.27;;;;;;;13.58;83.07;101569.03;6156272;23;20021;-86
2022/09/25 09:53:21;;;;;;;6.90;1.75;;;;;;;13.03;84.49;101486.88;6155496;23;20081;-80
2022/09/25 09:59:41;;;;;;;5.45;1.52;;;;;;;13.74;83.05;101562.72;6157149;23;20021;-85
2022/09/25 10:02:15;;;;;;;3.63;1.25;;;;;;;13.90;80.87;101561.75;6155450;23;20096;-81
2022/09/25 10:04:43;;;;;;;4.93;1.42;;;;;;;13.77;77.42;101527.97;6156828;23;20072;-81
2022/09/25 10:07:17;;;;;;;4.57;1.50;;;;;;;13.78;77.34;101525.28;6157386;23;20002;-82
2022/09/25 10:09:42;;;;;;;5.30;1.35;;;;;;;14.11;77.48;101569.91;6157091;23;20009;-81
2022/09/25 10:12:20;;;;;;;7.03;1.08;;;;;;;14.06;76.46;101550.28;6157059;23;20364;-81
2022/09/25 10:14:50;;;;;;;4.43;1.33;;;;;;;14.17;76.92;101567.75;6156696;23;20012;-82
2022/09/25 10:17:17;;;;;;;3.50;1.10;;;;;;;14.22;75.86;101550.06;6154624;23;20016;-81
2022/09/25 10:19:58;;;;;;;4.97;1.20;;;;;;;14.13;75.49;101531.66;6157395;23;20328;-82
2022/09/25 10:25:43;;;;;;;6.18;1.45;;;;;;;14.49;78.17;101560.41;6156933;23;20329;-84
2022/09/25 10:28:58;;;;;;;5.13;1.00;;;;;;;14.45;75.80;101550.31;6155263;23;20010;-82
2022/09/25 10:31:55;;;;;;;5.20;1.33;;;;;;;13.37;72.04;101385.28;6154905;23;20424;-82
2022/09/25 10:34:50;;;;;;;4.28;1.05;;;;;;;14.53;71.92;101561.84;6093693;23;20006;-81
2022/09/25 10:37:37;;;;;;;4.00;0.85;;;;;;;14.72;72.72;101558.84;6095427;23;20398;-79
2022/09/25 10:40:34;;;;;;;4.70;1.00;;;;;;;14.54;71.84;101506.34;6095626;23;20033;-78
2022/09/25 10:43:33;;;;;;;7.18;1.60;;;;;;;14.80;70.70;101553.94;6072077;23;20014;-84
2022/09/25 10:50:09;;;;;;;3.38;0.93;;;;;;;14.32;70.87;101478.38;6071908;23;20019;-86
2022/09/25 10:52:09;;;;;;;3.67;1.02;;;;;;;14.46;68.32;101511.25;6097839;23;20077;-80
2022/09/25 10:54:35;;;;;;;5.00;0.90;;;;;;;14.69;69.56;101550.44;6071483;23;20010;-81
2022/09/25 10:57:16;;;;;;;3.13;0.70;;;;;;;14.79;72.80;101538.44;6098144;23;20449;-79
2022/09/25 10:59:49;;;;;;;3.55;1.00;;;;;;;14.97;68.46;101538.94;6097719;23;20024;-80
2022/09/25 11:02:32;;;;;;;3.03;0.95;;;;;;;14.95;68.14;101523.44;6097766;23;20057;-79
2022/09/25 11:04:59;;;;;;;3.28;1.00;;;;;;;15.28;68.32;101542.81;6073796;23;20010;-81
2022/09/25 11:07:26;;;;;;;4.47;0.98;;;;;;;15.25;64.45;101543.03;6097780;23;20077;-84
2022/09/25 11:09:52;;;;;;;3.90;0.93;;;;;;;15.01;63.48;101523.00;6071319;23;20071;-79
2022/09/25 11:12:24;;;;;;;5.03;1.10;;;;;;;14.92;64.96;101542.69;6098081;23;20039;-82
2022/09/25 11:14:57;;;;;;;1.75;0.80;;;;;;;14.83;64.87;101545.91;6097342;23;20015;-79
2022/09/25 11:17:41;;;;;;;4.63;1.02;;;;;;;14.78;66.21;101518.59;6098015;23;20017;-86
2022/09/25 11:20:16;;;;;;;3.00;0.90;;;;;;;15.03;67.35;101541.94;6097768;23;20006;-84
2022/09/25 11:22:48;;;;;;;3.85;0.82;;;;;;;15.14;65.20;101531.63;6097809;23;20069;-84
2022/09/25 11:25:28;;;;;;;3.08;1.20;;;;;;;15.24;66.57;101533.53;6098010;23;20006;-81
2022/09/25 11:28:23;;;;;;;3.17;0.82;;;;;;;15.27;63.84;101544.59;6097489;23;20313;-81
2022/09/25 11:31:12;;;;;;;4.63;0.85;;;;;;;15.11;64.21;101544.00;6009542;23;20064;-82
2022/09/25 11:33:55;;;;;;;5.60;0.90;;;;;;;14.98;62.32;101517.19;5981028;24;20370;-81
2022/09/25 11:36:32;;;;;;;4.38;0.85;;;;;;;14.43;63.69;101397.06;5981092;24;20099;-81
2022/09/25 11:42:03;;;;;;;4.82;0.80;;;;;;;16.09;60.91;101521.25;5981025;24;20099;-83
2022/09/25 11:44:52;;;;;;;4.38;0.70;;;;;;;16.46;62.02;101524.53;5980951;24;20036;-80
2022/09/25 11:47:29;;;;;;;3.13;0.90;;;;;;;16.51;59.11;101523.22;5957778;24;20095;-81
2022/09/25 11:49:57;;;;;;;3.38;0.77;;;;;;;15.97;57.99;101456.13;5980797;24;20087;-80
2022/09/25 11:53:11;;;;;;;3.80;0.75;;;;;;;16.43;62.24;101520.38;5981014;24;20008;-81
2022/09/25 11:56:05;;;;;;;3.05;0.70;;;;;;;16.63;57.82;101513.63;5981026;24;20016;-81
2022/09/25 12:01:27;;;;;;;2.92;0.73;;;;;;;16.78;57.06;101488.16;6098546;23;20449;-81
2022/09/25 12:04:13;;;;;;;3.53;0.77;;;;;;;16.30;59.56;101444.88;6097279;23;20006;-83
2022/09/25 12:07:04;;;;;;;4.25;1.00;;;;;;;16.47;59.54;101497.50;6097259;23;20443;-80
2022/09/25 12:09:49;;;;;;;3.60;0.63;;;;;;;16.11;59.33;101501.97;6097422;23;20083;-80
2022/09/25 12:12:34;;;;;;;2.40;0.70;;;;;;;15.84;61.16;101506.66;6097341;23;20017;-80
2022/09/25 12:15:26;;;;;;;4.85;0.70;;;;;;;15.63;63.41;101488.22;6097196;23;20010;-80
2022/09/25 12:17:57;;;;;;;4.00;0.80;;;;;;;14.78;62.56;101340.03;6071527;23;20062;-83